createdAt,value
2019-02-05T00:02:15.387Z,3.30
2019-02-05T00:04:43.760Z,3.30
2019-02-05T00:07:12.136Z,3.30
2019-02-05T00:09:40.604Z,3.30
2019-02-05T00:12:09.409Z,3.30
2019-02-05T00:14:37.773Z,3.30
2019-02-05T00:17:06.162Z,3.30
2019-02-05T00:19:34.539Z,3.30
2019-02-05T00:22:03.307Z,3.30
2019-02-05T00:24:31.686Z,3.30
2019-02-05T00:27:00.447Z,3.30
2019-02-05T00:29:28.836Z,3.30
2019-02-05T00:31:57.214Z,3.30
2019-02-05T00:34:25.604Z,3.30
2019-02-05T00:36:53.985Z,3.30
2019-02-05T00:39:22.381Z,3.30
2019-02-05T00:41:50.778Z,3.30
2019-02-05T00:44:19.151Z,3.30
2019-02-05T00:46:47.548Z,3.30
2019-02-05T00:49:15.910Z,3.30
2019-02-05T00:51:44.301Z,3.30
2019-02-05T00:54:12.705Z,3.30
2019-02-05T00:56:41.068Z,3.30
2019-02-05T00:59:09.880Z,3.30
2019-02-05T01:01:38.237Z,3.30
2019-02-05T01:04:06.704Z,3.40
2019-02-05T01:06:35.064Z,3.40
2019-02-05T01:09:04.861Z,3.30
2019-02-05T01:11:33.234Z,3.40
2019-02-05T01:14:03.593Z,3.40
2019-02-05T01:16:32.003Z,3.40
2019-02-05T01:19:00.389Z,3.40
2019-02-05T01:21:28.718Z,3.30
2019-02-05T01:23:57.070Z,3.30
2019-02-05T01:26:29.136Z,3.30
2019-02-05T01:28:55.554Z,3.40
2019-02-05T01:31:23.928Z,3.30
2019-02-05T01:33:52.303Z,3.30
2019-02-05T01:36:20.703Z,3.40
2019-02-05T01:38:49.065Z,3.30
2019-02-05T01:41:17.454Z,3.30
2019-02-05T01:43:45.842Z,3.30
2019-02-05T01:46:14.216Z,3.30
2019-02-05T01:48:42.573Z,3.40
2019-02-05T01:51:10.944Z,3.30
2019-02-05T01:53:39.327Z,3.30
2019-02-05T01:56:07.998Z,3.40
2019-02-05T01:58:36.687Z,3.40
2019-02-05T02:01:05.758Z,3.30
2019-02-05T02:03:34.145Z,3.30
2019-02-05T02:06:02.539Z,3.30
2019-02-05T02:08:30.927Z,3.30
2019-02-05T02:10:59.327Z,3.40
2019-02-05T02:13:27.706Z,3.40
2019-02-05T02:15:56.131Z,3.40
2019-02-05T02:18:24.783Z,3.40
2019-02-05T02:20:53.162Z,3.40
2019-02-05T02:23:21.860Z,3.30
2019-02-05T02:25:50.228Z,3.30
2019-02-05T02:28:18.635Z,3.30
2019-02-05T02:30:47.004Z,3.30
2019-02-05T02:33:15.986Z,3.30
2019-02-05T02:35:44.359Z,3.30
2019-02-05T02:38:12.705Z,3.30
2019-02-05T02:40:41.059Z,3.30
2019-02-05T02:43:09.465Z,3.30
2019-02-05T02:45:38.163Z,3.30
2019-02-05T02:48:06.570Z,3.30
2019-02-05T02:50:34.935Z,3.30
2019-02-05T02:53:03.304Z,3.30
2019-02-05T02:55:32.073Z,3.30
2019-02-05T02:58:00.433Z,3.30
2019-02-05T03:00:28.823Z,3.30
2019-02-05T03:02:57.201Z,3.30
2019-02-05T03:05:26.007Z,3.30
2019-02-05T03:07:54.381Z,3.30
2019-02-05T03:10:25.368Z,3.30
2019-02-05T03:12:54.307Z,3.30
2019-02-05T03:15:22.662Z,3.20
2019-02-05T03:17:51.072Z,3.30
2019-02-05T03:20:19.455Z,3.30
2019-02-05T03:22:47.828Z,3.30
2019-02-05T03:25:23.923Z,3.40
2019-02-05T03:27:53.863Z,3.30
2019-02-05T03:30:23.935Z,3.30
2019-02-05T03:32:52.859Z,3.30
2019-02-05T03:35:21.207Z,3.30
2019-02-05T03:37:49.707Z,3.30
2019-02-05T03:40:30.629Z,3.40
2019-02-05T03:42:59.241Z,3.30
2019-02-05T03:45:27.770Z,3.30
2019-02-05T03:47:59.901Z,3.30
2019-02-05T03:50:28.549Z,3.30
2019-02-05T03:53:12.088Z,3.30
2019-02-05T03:55:49.272Z,3.30
2019-02-05T03:58:30.117Z,3.30
2019-02-05T04:01:20.003Z,3.30
2019-02-05T04:03:51.687Z,3.30
2019-02-05T04:06:51.337Z,3.30
2019-02-05T04:09:29.061Z,3.30
2019-02-05T04:12:12.575Z,3.30
2019-02-05T04:14:58.996Z,3.30
2019-02-05T04:17:47.167Z,3.30
2019-02-05T04:20:30.607Z,3.30
2019-02-05T04:23:08.149Z,3.30
2019-02-05T04:25:54.854Z,3.30
2019-02-05T04:28:38.825Z,3.40
2019-02-05T04:31:27.217Z,3.30
2019-02-05T04:33:58.845Z,3.40
2019-02-05T04:36:36.609Z,3.40
2019-02-05T04:39:17.445Z,3.40
2019-02-05T04:42:14.503Z,3.40
2019-02-05T04:45:08.258Z,3.40
2019-02-05T04:48:05.892Z,3.30
2019-02-05T04:50:37.718Z,3.30
2019-02-05T04:53:18.176Z,3.30
2019-02-05T04:55:49.813Z,3.30
2019-02-05T04:58:36.741Z,3.30
2019-02-05T05:01:20.681Z,3.40
2019-02-05T05:04:07.492Z,3.40
2019-02-05T05:06:56.002Z,3.40
2019-02-05T05:09:36.494Z,3.30
2019-02-05T05:12:04.853Z,3.30
2019-02-05T05:14:33.229Z,3.30
2019-02-05T05:17:02.027Z,3.40
2019-02-05T05:19:30.694Z,3.40
2019-02-05T05:21:59.081Z,3.40
2019-02-05T05:24:27.455Z,3.40
2019-02-05T05:26:55.837Z,3.40
2019-02-05T05:29:24.206Z,3.40
2019-02-05T05:31:52.583Z,3.40
2019-02-05T05:34:21.355Z,3.50
2019-02-05T05:36:48.914Z,3.40
2019-02-05T05:39:17.909Z,3.40
2019-02-05T05:41:46.295Z,3.40
2019-02-05T05:44:14.694Z,3.40
2019-02-05T05:46:43.098Z,3.40
2019-02-05T05:49:11.468Z,3.50
2019-02-05T05:51:40.260Z,3.50
2019-02-05T05:54:08.969Z,3.50
2019-02-05T05:56:37.395Z,3.40
2019-02-05T05:59:05.741Z,3.40
2019-02-05T06:01:34.085Z,3.40
2019-02-05T06:04:02.470Z,3.40
2019-02-05T06:06:31.366Z,3.40
2019-02-05T06:09:00.176Z,3.40
2019-02-05T06:11:28.816Z,3.40
2019-02-05T06:13:57.204Z,3.50
2019-02-05T06:16:25.584Z,3.40
2019-02-05T06:18:53.955Z,3.40
2019-02-05T06:21:22.355Z,3.40
2019-02-05T06:23:50.710Z,3.40
2019-02-05T06:26:20.297Z,3.40
2019-02-05T06:28:48.878Z,3.40
2019-02-05T06:31:17.228Z,3.40
2019-02-05T06:33:45.633Z,3.40
2019-02-05T06:36:13.996Z,3.50
2019-02-05T06:38:44.601Z,3.40
2019-02-05T06:41:12.394Z,3.40
2019-02-05T06:43:41.074Z,3.50
2019-02-05T06:46:09.449Z,3.40
2019-02-05T06:48:38.708Z,3.40
2019-02-05T06:51:07.484Z,3.40
2019-02-05T06:53:35.821Z,3.40
2019-02-05T06:56:04.796Z,3.40
2019-02-05T06:58:33.184Z,3.40
2019-02-05T07:01:01.555Z,3.40
2019-02-05T07:03:29.957Z,3.40
2019-02-05T07:05:58.402Z,3.40
2019-02-05T07:08:26.831Z,3.40
2019-02-05T07:10:55.394Z,3.40
2019-02-05T07:13:23.898Z,3.40
2019-02-05T07:15:52.366Z,3.50
2019-02-05T07:18:21.076Z,3.50
2019-02-05T07:20:49.505Z,3.50
2019-02-05T07:23:17.938Z,3.50
2019-02-05T07:25:46.369Z,3.50
2019-02-05T07:28:15.144Z,3.50
2019-02-05T07:30:43.567Z,3.50
2019-02-05T07:33:12.316Z,3.50
2019-02-05T07:35:40.951Z,3.60
2019-02-05T07:38:09.453Z,3.60
2019-02-05T07:40:37.929Z,3.60
2019-02-05T07:43:06.717Z,3.50
2019-02-05T07:45:35.139Z,3.50
2019-02-05T07:48:03.656Z,3.60
2019-02-05T07:50:32.090Z,3.60
2019-02-05T07:53:00.518Z,3.60
2019-02-05T07:55:28.932Z,3.60
2019-02-05T07:57:57.442Z,3.60
2019-02-05T08:00:28.063Z,3.60
2019-02-05T08:02:56.487Z,3.60
2019-02-05T08:05:27.782Z,3.70
2019-02-05T08:07:56.268Z,3.70
2019-02-05T08:10:24.708Z,3.70
2019-02-05T08:12:53.412Z,3.80
2019-02-05T08:15:30.361Z,3.90
2019-02-05T08:17:59.274Z,3.90
2019-02-05T08:20:27.702Z,3.90
2019-02-05T08:22:56.135Z,3.90
2019-02-05T08:25:24.628Z,3.90
2019-02-05T08:27:53.376Z,4.00
2019-02-05T08:30:40.214Z,3.90
2019-02-05T08:33:12.623Z,4.00
2019-02-05T08:35:41.039Z,4.00
2019-02-05T08:38:09.789Z,4.00
2019-02-05T08:40:38.234Z,4.00
2019-02-05T08:43:06.963Z,4.00
2019-02-05T08:45:37.117Z,4.10
2019-02-05T08:48:07.730Z,4.20
2019-02-05T08:50:36.140Z,4.20
2019-02-05T08:53:04.595Z,4.30
2019-02-05T08:55:33.334Z,4.40
2019-02-05T08:58:07.539Z,4.40
2019-02-05T09:00:38.121Z,4.40
2019-02-05T09:03:08.377Z,4.40
2019-02-05T09:05:36.823Z,4.40
2019-02-05T09:08:05.233Z,4.40
2019-02-05T09:10:35.402Z,4.40
2019-02-05T09:13:04.289Z,4.40
2019-02-05T09:15:33.006Z,4.50
2019-02-05T09:18:01.444Z,4.60
2019-02-05T09:20:29.857Z,4.60
2019-02-05T09:22:58.655Z,4.80
2019-02-05T09:25:27.082Z,4.90
2019-02-05T09:27:55.500Z,4.90
2019-02-05T09:30:36.669Z,4.90
2019-02-05T09:33:08.762Z,5.00
2019-02-05T09:35:37.535Z,5.00
2019-02-05T09:38:05.949Z,5.20
2019-02-05T09:40:34.362Z,5.20
2019-02-05T09:43:02.785Z,5.10
2019-02-05T09:45:31.570Z,5.20
2019-02-05T09:48:00.871Z,5.30
2019-02-05T09:50:31.043Z,5.40
2019-02-05T09:52:59.352Z,5.30
2019-02-05T09:55:28.131Z,5.30
2019-02-05T09:57:56.530Z,5.30
2019-02-05T10:00:28.235Z,5.40
2019-02-05T10:02:57.152Z,5.40
2019-02-05T10:05:33.310Z,5.30
2019-02-05T10:08:01.718Z,5.50
2019-02-05T10:10:30.146Z,5.70
2019-02-05T10:12:58.573Z,5.70
2019-02-05T10:15:32.611Z,5.90
2019-02-05T10:18:01.375Z,6.00
2019-02-05T10:20:29.855Z,5.90
2019-02-05T10:23:00.028Z,5.90
2019-02-05T10:25:28.467Z,5.80
2019-02-05T10:27:56.891Z,5.60
2019-02-05T10:30:33.647Z,5.70
2019-02-05T10:33:02.468Z,5.90
2019-02-05T10:35:30.911Z,6.10
2019-02-05T10:37:59.352Z,6.30
2019-02-05T10:40:27.830Z,6.40
2019-02-05T10:42:56.281Z,6.40
2019-02-05T10:45:26.228Z,6.60
2019-02-05T10:47:54.717Z,6.90
2019-02-05T10:50:23.562Z,7.10
2019-02-05T10:52:51.995Z,7.20
2019-02-05T10:55:21.783Z,7.00
2019-02-05T10:57:54.895Z,6.90
2019-02-05T11:00:26.130Z,6.80
2019-02-05T11:02:55.141Z,6.80
2019-02-05T11:05:26.129Z,6.70
2019-02-05T11:07:54.566Z,6.70
2019-02-05T11:10:22.991Z,6.70
2019-02-05T11:12:51.430Z,6.60
2019-02-05T11:15:25.797Z,6.70
2019-02-05T11:17:54.211Z,6.40
2019-02-05T11:20:25.933Z,6.60
2019-02-05T11:22:54.344Z,6.80
2019-02-05T11:25:23.073Z,7.00
2019-02-05T11:27:51.876Z,6.80
2019-02-05T11:30:32.609Z,6.90
2019-02-05T11:33:01.056Z,6.90
2019-02-05T11:35:29.881Z,6.90
2019-02-05T11:37:58.328Z,6.80
2019-02-05T11:40:29.294Z,6.80
2019-02-05T11:42:57.758Z,6.90
2019-02-05T11:45:26.175Z,6.90
2019-02-05T11:47:54.682Z,6.90
2019-02-05T11:50:23.835Z,7.00
2019-02-05T11:52:52.599Z,7.10
2019-02-05T11:55:26.739Z,7.30
2019-02-05T11:57:55.188Z,7.50
2019-02-05T12:00:32.721Z,7.60
2019-02-05T12:02:55.356Z,7.60
2019-02-05T12:05:23.794Z,7.40
2019-02-05T12:07:52.655Z,7.10
2019-02-05T12:10:21.070Z,7.00
2019-02-05T12:12:49.476Z,7.00
2019-02-05T12:15:18.061Z,7.00
2019-02-05T12:17:46.495Z,7.20
2019-02-05T12:20:19.089Z,7.40
2019-02-05T12:22:48.845Z,7.40
2019-02-05T12:25:20.418Z,7.50
2019-02-05T12:27:48.846Z,7.60
2019-02-05T12:30:43.870Z,7.60
2019-02-05T12:33:03.076Z,7.40
2019-02-05T12:35:31.500Z,7.30
2019-02-05T12:38:00.096Z,7.30
2019-02-05T12:40:29.018Z,7.20
2019-02-05T12:42:57.484Z,7.20
2019-02-05T12:45:29.011Z,7.20
2019-02-05T12:47:57.449Z,7.10
2019-02-05T12:50:38.362Z,7.20
2019-02-05T12:53:07.217Z,7.20
2019-02-05T12:55:35.624Z,7.10
2019-02-05T12:58:04.132Z,7.30
2019-02-05T13:00:35.362Z,7.30
2019-02-05T13:03:03.978Z,7.40
2019-02-05T13:05:32.403Z,7.30
2019-02-05T13:08:01.358Z,7.30
2019-02-05T13:10:35.743Z,7.10
2019-02-05T13:13:04.857Z,6.90
2019-02-05T13:15:33.299Z,7.00
2019-02-05T13:18:01.797Z,7.20
2019-02-05T13:20:31.023Z,7.20
2019-02-05T13:22:59.766Z,7.20
2019-02-05T13:25:30.258Z,7.30
2019-02-05T13:27:58.729Z,7.30
2019-02-05T13:30:35.255Z,7.30
2019-02-05T13:33:03.704Z,7.40
2019-02-05T13:35:32.438Z,7.30
2019-02-05T13:38:00.863Z,7.30
2019-02-05T13:40:29.686Z,7.10
2019-02-05T13:42:59.014Z,7.30
2019-02-05T13:45:32.846Z,7.30
2019-02-05T13:48:01.281Z,7.20
2019-02-05T13:50:33.353Z,7.10
2019-02-05T13:53:01.637Z,6.90
2019-02-05T13:55:35.656Z,6.80
2019-02-05T13:58:04.170Z,6.80
2019-02-05T14:00:44.172Z,7.00
2019-02-05T14:03:12.574Z,7.10
2019-02-05T14:05:40.994Z,7.10
2019-02-05T14:08:09.451Z,7.10
2019-02-05T14:10:40.587Z,7.30
2019-02-05T14:13:09.001Z,7.20
2019-02-05T14:15:39.794Z,7.20
2019-02-05T14:18:08.651Z,7.30
2019-02-05T14:20:37.070Z,7.30
2019-02-05T14:23:05.440Z,7.20
2019-02-05T14:25:33.856Z,7.10
2019-02-05T14:28:02.293Z,7.10
2019-02-05T14:30:33.156Z,7.10
2019-02-05T14:33:01.873Z,7.20
2019-02-05T14:35:30.330Z,7.20
2019-02-05T14:37:58.742Z,7.30
2019-02-05T14:40:27.673Z,7.10
2019-02-05T14:42:56.071Z,7.00
2019-02-05T14:45:24.874Z,6.90
2019-02-05T14:47:53.299Z,6.80
2019-02-05T14:50:25.004Z,6.80
2019-02-05T14:52:53.530Z,6.80
2019-02-05T14:55:21.960Z,6.80
2019-02-05T14:57:50.426Z,6.90
2019-02-05T15:00:27.660Z,6.80
2019-02-05T15:02:56.533Z,6.80
2019-02-05T15:05:24.981Z,6.80
2019-02-05T15:07:53.405Z,6.80
2019-02-05T15:10:21.864Z,6.80
2019-02-05T15:12:50.354Z,6.80
2019-02-05T15:15:21.280Z,6.80
2019-02-05T15:17:50.035Z,6.90
2019-02-05T15:20:24.182Z,6.90
2019-02-05T15:22:52.625Z,6.90
2019-02-05T15:25:21.079Z,7.00
2019-02-05T15:27:51.152Z,7.10
2019-02-05T15:30:28.425Z,7.10
2019-02-05T15:33:15.024Z,7.30
2019-02-05T15:35:54.288Z,7.30
2019-02-05T15:38:22.768Z,7.20
2019-02-05T15:40:51.237Z,7.10
2019-02-05T15:43:19.667Z,7.20
2019-02-05T15:45:48.108Z,7.30
2019-02-05T15:48:16.519Z,7.30
2019-02-05T15:50:44.940Z,7.20
2019-02-05T15:53:15.029Z,7.20
2019-02-05T15:55:43.800Z,7.10
2019-02-05T15:58:12.786Z,7.00
2019-02-05T16:00:41.282Z,7.00
2019-02-05T16:03:09.693Z,6.90
2019-02-05T16:05:38.130Z,7.00
2019-02-05T16:08:06.950Z,7.00
2019-02-05T16:10:35.401Z,6.90
2019-02-05T16:13:04.214Z,7.00
2019-02-05T16:15:32.672Z,6.90
2019-02-05T16:18:01.109Z,6.90
2019-02-05T16:20:29.495Z,6.90
2019-02-05T16:22:57.913Z,6.90
2019-02-05T16:25:26.336Z,6.90
2019-02-05T16:27:55.158Z,6.90
2019-02-05T16:30:29.814Z,6.90
2019-02-05T16:32:58.261Z,6.90
2019-02-05T16:35:27.067Z,6.90
2019-02-05T16:37:55.559Z,6.90
2019-02-05T16:40:35.813Z,6.80
2019-02-05T16:43:04.612Z,6.70
2019-02-05T16:45:33.039Z,6.70
2019-02-05T16:48:01.479Z,6.70
2019-02-05T16:50:42.280Z,6.70
2019-02-05T16:53:11.506Z,6.70
2019-02-05T16:55:40.000Z,6.70
2019-02-05T16:58:08.445Z,6.60
2019-02-05T17:00:38.167Z,6.60
2019-02-05T17:03:07.131Z,6.60
2019-02-05T17:05:37.827Z,6.60
2019-02-05T17:08:06.313Z,6.60
2019-02-05T17:10:34.753Z,6.60
2019-02-05T17:13:03.335Z,6.60
2019-02-05T17:15:31.749Z,6.50
2019-02-05T17:18:00.201Z,6.50
2019-02-05T17:20:30.353Z,6.40
2019-02-05T17:23:00.716Z,6.30
2019-02-05T17:25:29.121Z,6.20
2019-02-05T17:27:59.480Z,6.10
2019-02-05T17:30:40.940Z,6.10
2019-02-05T17:33:09.366Z,6.10
2019-02-05T17:35:37.780Z,6.00
2019-02-05T17:38:25.819Z,5.90
2019-02-05T17:40:54.763Z,5.80
2019-02-05T17:43:23.310Z,5.70
2019-02-05T17:45:51.719Z,5.50
2019-02-05T17:48:20.160Z,5.40
2019-02-05T17:50:48.640Z,5.30
2019-02-05T17:53:17.087Z,5.20
2019-02-05T17:55:45.544Z,5.10
2019-02-05T17:58:13.944Z,5.00
2019-02-05T18:00:49.654Z,4.90
2019-02-05T18:03:18.518Z,4.80
2019-02-05T18:05:46.920Z,4.70
2019-02-05T18:08:15.347Z,4.70
2019-02-05T18:10:43.794Z,4.70
2019-02-05T18:13:12.260Z,4.50
2019-02-05T18:15:42.609Z,4.50
2019-02-05T18:18:11.043Z,4.30
2019-02-05T18:20:39.480Z,4.20
2019-02-05T18:23:07.933Z,4.20
2019-02-05T18:25:36.367Z,4.20
2019-02-05T18:28:05.263Z,4.10
2019-02-05T18:30:35.439Z,4.10
2019-02-05T18:33:05.796Z,4.10
2019-02-05T18:35:33.927Z,3.90
2019-02-05T18:38:04.806Z,3.90
2019-02-05T18:40:33.225Z,3.90
2019-02-05T18:43:01.744Z,3.70
2019-02-05T18:45:30.162Z,3.60
2019-02-05T18:47:58.580Z,3.60
2019-02-05T18:50:29.231Z,3.60
2019-02-05T18:52:58.020Z,3.50
2019-02-05T18:55:29.755Z,3.30
2019-02-05T18:58:08.933Z,3.30
2019-02-05T19:00:30.518Z,3.20
2019-02-05T19:02:58.943Z,3.20
2019-02-05T19:05:27.763Z,3.10
2019-02-05T19:07:56.207Z,3.00
2019-02-05T19:10:26.585Z,2.80
2019-02-05T19:12:54.929Z,2.70
2019-02-05T19:15:25.835Z,2.50
2019-02-05T19:17:54.265Z,2.40
2019-02-05T19:20:25.190Z,2.30
2019-02-05T19:22:53.618Z,2.30
2019-02-05T19:25:39.783Z,2.20
2019-02-05T19:28:08.996Z,2.00
2019-02-05T19:30:39.048Z,2.00
2019-02-05T19:33:07.485Z,2.10
2019-02-05T19:35:35.897Z,2.30
2019-02-05T19:38:04.649Z,2.20
2019-02-05T19:40:33.362Z,2.10
2019-02-05T19:43:01.787Z,2.10
2019-02-05T19:45:48.173Z,2.00
2019-02-05T19:48:18.333Z,1.90
2019-02-05T19:50:47.065Z,1.70
2019-02-05T19:53:15.477Z,1.60
2019-02-05T19:55:43.923Z,1.50
2019-02-05T19:58:12.333Z,1.40
2019-02-05T20:00:40.857Z,1.30
2019-02-05T20:03:09.305Z,1.30
2019-02-05T20:05:37.721Z,1.30
2019-02-05T20:08:06.168Z,1.40
2019-02-05T20:10:34.595Z,1.40
2019-02-05T20:13:03.019Z,1.30
2019-02-05T20:15:31.448Z,1.30
2019-02-05T20:17:59.871Z,1.20
2019-02-05T20:20:28.339Z,1.10
2019-02-05T20:22:56.758Z,1.10
2019-02-05T20:25:25.198Z,1.20
2019-02-05T20:27:53.649Z,1.20
2019-02-05T20:30:24.100Z,1.20
2019-02-05T20:32:52.511Z,1.10
2019-02-05T20:35:20.895Z,1.00
2019-02-05T20:37:49.716Z,0.90
2019-02-05T20:40:20.162Z,1.10
2019-02-05T20:42:48.612Z,1.00
2019-02-05T20:45:17.073Z,1.10
2019-02-05T20:47:45.492Z,1.20
2019-02-05T20:50:20.863Z,1.40
2019-02-05T20:52:49.303Z,2.00
2019-02-05T20:55:22.085Z,2.40
2019-02-05T20:57:50.543Z,2.50
2019-02-05T21:00:27.267Z,3.00
2019-02-05T21:02:55.715Z,3.10
2019-02-05T21:05:24.135Z,3.10
2019-02-05T21:07:52.552Z,3.20
2019-02-05T21:10:26.165Z,3.20
2019-02-05T21:12:54.590Z,3.20
2019-02-05T21:15:23.379Z,3.30
2019-02-05T21:17:51.808Z,3.40
2019-02-05T21:20:29.607Z,3.30
2019-02-05T21:22:52.369Z,3.40
2019-02-05T21:25:22.416Z,3.50
2019-02-05T21:27:50.884Z,3.60
2019-02-05T21:30:21.487Z,3.60
2019-02-05T21:32:49.981Z,3.70
2019-02-05T21:35:18.460Z,3.70
2019-02-05T21:37:46.883Z,3.70
2019-02-05T21:40:18.647Z,3.70
2019-02-05T21:42:47.084Z,3.70
2019-02-05T21:45:20.873Z,3.70
2019-02-05T21:47:49.300Z,3.70
2019-02-05T21:50:19.960Z,3.70
2019-02-05T21:52:48.743Z,3.70
2019-02-05T21:55:19.129Z,3.70
2019-02-05T21:57:47.585Z,3.80
2019-02-05T22:00:18.839Z,3.80
2019-02-05T22:02:47.272Z,3.90
2019-02-05T22:05:15.943Z,3.90
2019-02-05T22:07:44.825Z,4.00
2019-02-05T22:10:13.726Z,4.10
2019-02-05T22:12:42.427Z,4.10
2019-02-05T22:15:13.069Z,4.10
2019-02-05T22:17:41.505Z,4.10
2019-02-05T22:20:21.407Z,4.20
2019-02-05T22:22:49.857Z,4.10
2019-02-05T22:25:30.087Z,4.10
2019-02-05T22:27:58.849Z,4.10
2019-02-05T22:30:38.135Z,4.10
2019-02-05T22:33:09.494Z,4.00
2019-02-05T22:35:37.890Z,4.00
2019-02-05T22:38:06.683Z,4.00
2019-02-05T22:40:35.130Z,3.90
2019-02-05T22:43:03.943Z,3.90
2019-02-05T22:45:32.834Z,4.00
2019-02-05T22:48:01.241Z,4.10
2019-02-05T22:50:36.827Z,4.10
2019-02-05T22:53:24.684Z,4.10
2019-02-05T22:55:53.480Z,4.00
2019-02-05T22:58:22.379Z,4.00
2019-02-05T23:01:06.378Z,3.90
2019-02-05T23:03:47.130Z,3.90
2019-02-05T23:06:46.350Z,3.80
2019-02-05T23:09:18.018Z,3.70
2019-02-05T23:12:07.190Z,3.60
2019-02-05T23:14:35.618Z,3.60
2019-02-05T23:17:04.442Z,3.60
2019-02-05T23:19:32.892Z,3.60
2019-02-05T23:22:01.244Z,3.60
2019-02-05T23:24:29.649Z,3.50
2019-02-05T23:26:58.028Z,3.50
2019-02-05T23:29:26.678Z,3.40
2019-02-05T23:31:55.063Z,3.60
2019-02-05T23:34:23.442Z,3.60
2019-02-05T23:36:51.843Z,3.60
2019-02-05T23:39:21.012Z,3.70
2019-02-05T23:41:49.487Z,3.70
2019-02-05T23:44:18.259Z,3.70
2019-02-05T23:46:46.632Z,3.70
2019-02-05T23:49:15.414Z,3.70
2019-02-05T23:51:43.804Z,3.60
2019-02-05T23:54:12.198Z,3.60
2019-02-05T23:56:40.574Z,3.60
2019-02-05T23:59:09.334Z,3.50
